Time;durP1;ratioP1;P1;durP2;ratioP2;P2;SDS_P1;SDS_P2;PMS_P1;PMS_P2;Temp;Humidity;BMP_temperature;BMP_pressure;BME280_temperature;BME280_humidity;BME280_pressure;Samples;Min_cycle;Max_cycle;Signal;HPM_P1;HPM_P2
2023/04/20 00:00:10;;;;;;;7.70;5.30;;;5.40;99.90;;;;;;5053295;28;20420;-44
2023/04/20 00:02:37;;;;;;;7.40;5.40;;;5.40;1.00;;;;;;5054677;28;20177;-43
2023/04/20 00:05:08;;;;;;;8.30;5.50;;;5.40;1.00;;;;;;5056313;28;20428;-43
2023/04/20 00:07:34;;;;;;;8.60;5.13;;;5.30;1.00;;;;;;5055607;28;20651;-43
2023/04/20 00:10:01;;;;;;;5.37;4.87;;;5.20;1.00;;;;;;5056214;28;20435;-43
2023/04/20 00:12:26;;;;;;;7.73;5.73;;;5.20;1.00;;;;;;5055926;28;20529;-45
2023/04/20 00:14:52;;;;;;;6.20;5.50;;;5.20;1.00;;;;;;5059589;28;20838;-43
2023/04/20 00:17:18;;;;;;;6.57;5.37;;;5.20;1.00;;;;;;5059272;28;20601;-45
2023/04/20 00:19:45;;;;;;;5.93;5.43;;;5.20;1.00;;;;;;5059555;28;20521;-46
2023/04/20 00:22:11;;;;;;;5.70;5.20;;;5.10;1.00;;;;;;5059422;28;20473;-44
2023/04/20 00:24:36;;;;;;;7.93;6.50;;;5.10;1.00;;;;;;5059114;28;20741;-45
2023/04/20 00:27:02;;;;;;;6.77;6.10;;;5.10;1.00;;;;;;5059119;28;20464;-43
2023/04/20 00:29:28;;;;;;;6.73;5.47;;;5.10;1.00;;;;;;5059753;28;20193;-45
2023/04/20 00:31:53;;;;;;;9.60;5.63;;;5.10;42.60;;;;;;5059125;28;20197;-45
2023/04/20 00:34:19;;;;;;;10.17;5.83;;;5.00;99.90;;;;;;5058829;28;20178;-44
2023/04/20 00:36:45;;;;;;;6.80;5.73;;;5.10;99.90;;;;;;5059303;28;20170;-44
2023/04/20 00:39:11;;;;;;;6.20;5.33;;;5.00;99.90;;;;;;5058370;28;20429;-43
2023/04/20 00:41:36;;;;;;;6.63;6.03;;;5.00;99.90;;;;;;5059165;28;20264;-43
2023/04/20 00:44:02;;;;;;;8.17;6.00;;;5.00;99.90;;;;;;5057848;28;20189;-45
2023/04/20 00:46:27;;;;;;;6.33;5.73;;;4.90;99.90;;;;;;5059404;28;20197;-43
2023/04/20 00:48:53;;;;;;;7.93;5.40;;;4.90;99.90;;;;;;5059295;28;20201;-45
2023/04/20 00:51:20;;;;;;;6.27;5.67;;;4.90;1.00;;;;;;5058570;28;20262;-43
2023/04/20 00:53:46;;;;;;;6.87;6.17;;;4.80;1.00;;;;;;5058868;28;20423;-44
2023/04/20 00:56:13;;;;;;;6.23;5.63;;;4.80;1.00;;;;;;5058787;28;20423;-43
2023/04/20 00:58:38;;;;;;;5.63;5.10;;;4.80;1.00;;;;;;5058150;28;20192;-43
2023/04/20 01:01:04;;;;;;;6.10;5.60;;;4.70;1.00;;;;;;5056599;28;20507;-44
2023/04/20 01:03:30;;;;;;;7.27;6.57;;;4.70;1.00;;;;;;5057521;28;20598;-43
2023/04/20 01:05:56;;;;;;;6.00;5.40;;;4.70;1.00;;;;;;5057641;28;20786;-43
2023/04/20 01:08:26;;;;;;;6.57;5.83;;;4.60;51.10;;;;;;5056841;28;20702;-44
2023/04/20 01:10:53;;;;;;;7.73;5.73;;;4.60;99.90;;;;;;5058394;28;20486;-46
2023/04/20 01:13:19;;;;;;;8.53;5.70;;;4.60;99.90;;;;;;5057778;28;20428;-45
2023/04/20 01:15:44;;;;;;;8.50;5.97;;;4.50;99.90;;;;;;5059034;28;20481;-44
2023/04/20 01:18:10;;;;;;;7.60;6.30;;;4.50;99.90;;;;;;5058192;28;20421;-43
2023/04/20 01:20:36;;;;;;;7.77;6.07;;;4.50;99.90;;;;;;5058603;28;20174;-43
2023/04/20 01:23:02;;;;;;;6.97;5.80;;;4.40;1.00;;;;;;5058528;28;20436;-44
2023/04/20 01:25:28;;;;;;;6.73;5.50;;;4.40;1.00;;;;;;5056107;28;20409;-43
2023/04/20 01:28:18;;;;;;;6.23;5.57;;;4.40;1.00;;;;;;5058257;28;20237;-43
2023/04/20 01:30:44;;;;;;;6.80;6.13;;;4.30;93.80;;;;;;5058118;28;20703;-43
2023/04/20 01:33:09;;;;;;;8.50;6.23;;;4.30;99.90;;;;;;5057554;28;20761;-44
2023/04/20 01:35:35;;;;;;;7.20;5.80;;;4.20;1.00;;;;;;5055641;28;20209;-45
2023/04/20 01:38:01;;;;;;;6.97;6.27;;;4.20;1.00;;;;;;5057079;28;20272;-44
2023/04/20 01:40:26;;;;;;;7.13;6.43;;;4.10;59.60;;;;;;5057027;28;20555;-43
2023/04/20 01:42:52;;;;;;;5.70;5.20;;;4.10;99.90;;;;;;5055345;28;20291;-43
2023/04/20 01:45:17;;;;;;;8.83;6.40;;;4.00;99.90;;;;;;5055407;28;20182;-43
2023/04/20 01:47:43;;;;;;;6.97;6.27;;;4.00;1.00;;;;;;5054448;28;20181;-46
2023/04/20 01:50:09;;;;;;;5.83;5.20;;;4.00;1.00;;;;;;5056166;28;20186;-45
2023/04/20 01:52:35;;;;;;;8.53;6.20;;;4.00;1.00;;;;;;5057733;28;20213;-44
2023/04/20 01:55:00;;;;;;;6.53;5.80;;;3.90;1.00;;;;;;5057696;28;20409;-44
2023/04/20 01:57:26;;;;;;;9.17;6.37;;;3.90;1.00;;;;;;5056611;28;20578;-44
2023/04/20 01:59:51;;;;;;;6.50;5.90;;;3.90;1.00;;;;;;5056708;28;20261;-43
2023/04/20 02:02:17;;;;;;;6.63;6.03;;;3.80;1.00;;;;;;5056103;28;20177;-44
2023/04/20 02:04:42;;;;;;;7.30;5.87;;;3.70;99.90;;;;;;5058320;28;20197;-45
2023/04/20 02:07:08;;;;;;;6.00;5.40;;;3.60;99.90;;;;;;5058496;28;20186;-44
2023/04/20 02:09:33;;;;;;;6.97;6.30;;;3.50;1.00;;;;;;5057595;28;20181;-43
2023/04/20 02:12:00;;;;;;;7.30;6.60;;;3.50;1.00;;;;;;5056846;28;20491;-43
2023/04/20 02:14:26;;;;;;;6.63;5.93;;;3.50;1.00;;;;;;5057124;28;20250;-43
2023/04/20 02:16:52;;;;;;;6.20;5.60;;;3.40;1.00;;;;;;5057775;28;20424;-44
2023/04/20 02:19:17;;;;;;;7.87;6.33;;;3.40;1.00;;;;;;5057560;28;20178;-43
2023/04/20 02:21:43;;;;;;;6.70;6.10;;;3.40;1.00;;;;;;5057245;28;20177;-44
2023/04/20 02:24:09;;;;;;;8.53;6.40;;;3.30;1.00;;;;;;5056739;28;20460;-43
2023/04/20 02:26:34;;;;;;;7.13;5.67;;;3.30;1.00;;;;;;5055583;28;20218;-44
2023/04/20 02:29:00;;;;;;;6.67;5.97;;;3.30;1.00;;;;;;5056319;28;20504;-43
2023/04/20 02:31:26;;;;;;;7.30;5.43;;;3.30;10.00;;;;;;5057344;28;20452;-45
2023/04/20 02:33:51;;;;;;;8.40;6.23;;;3.20;50.10;;;;;;5057064;28;20178;-43
2023/04/20 02:36:17;;;;;;;7.00;6.30;;;3.20;95.00;;;;;;5055909;28;20471;-43
2023/04/20 02:38:42;;;;;;;6.83;5.70;;;3.20;99.90;;;;;;5054848;28;20216;-45
2023/04/20 02:41:08;;;;;;;7.53;6.03;;;3.20;99.90;;;;;;5056299;28;20251;-44
2023/04/20 02:43:35;;;;;;;7.30;6.30;;;3.10;99.90;;;;;;5055991;28;20185;-44
2023/04/20 02:46:00;;;;;;;7.97;6.17;;;3.00;99.90;;;;;;5055678;28;20445;-45
2023/04/20 02:48:26;;;;;;;6.20;5.60;;;3.00;99.90;;;;;;5057165;28;20480;-43
2023/04/20 02:50:55;;;;;;;7.20;6.50;;;3.00;99.90;;;;;;5055429;28;20217;-43
2023/04/20 02:53:20;;;;;;;6.40;5.80;;;2.90;99.90;;;;;;5056342;28;20223;-43
2023/04/20 02:55:46;;;;;;;8.30;6.40;;;2.90;99.90;;;;;;5056448;28;20420;-44
2023/04/20 02:58:11;;;;;;;6.40;5.77;;;2.80;99.90;;;;;;5054651;28;20158;-44
2023/04/20 03:00:37;;;;;;;6.70;6.10;;;2.70;1.00;;;;;;5054994;28;20190;-43
2023/04/20 03:03:03;;;;;;;8.10;7.30;;;2.70;1.00;;;;;;5055320;28;20174;-43
2023/04/20 03:05:28;;;;;;;7.03;6.37;;;2.70;1.00;;;;;;5054864;28;20182;-43
2023/04/20 03:07:55;;;;;;;8.20;6.60;;;2.60;1.00;;;;;;5053335;28;20247;-44
2023/04/20 03:10:21;;;;;;;7.47;6.73;;;2.60;1.00;;;;;;5051138;28;20185;-44
2023/04/20 03:12:46;;;;;;;7.23;6.23;;;2.60;1.00;;;;;;5053564;28;20805;-43
2023/04/20 03:15:12;;;;;;;7.43;6.63;;;2.60;1.00;;;;;;5053683;28;20189;-43
2023/04/20 03:17:37;;;;;;;6.73;6.03;;;2.50;1.00;;;;;;5054258;28;20184;-44
2023/04/20 03:20:04;;;;;;;6.63;6.03;;;2.50;1.00;;;;;;5053852;28;20215;-43
2023/04/20 03:22:29;;;;;;;8.70;6.60;;;2.50;1.00;;;;;;5055130;28;20194;-46
2023/04/20 03:24:55;;;;;;;7.10;6.43;;;2.50;1.00;;;;;;5056474;28;20429;-45
2023/04/20 03:27:20;;;;;;;9.00;6.67;;;2.50;1.00;;;;;;5056014;28;20282;-43
2023/04/20 03:29:47;;;;;;;7.40;6.70;;;2.50;1.00;;;;;;5055477;28;20193;-44
2023/04/20 03:32:13;;;;;;;7.57;6.87;;;2.50;1.00;;;;;;5055461;28;20239;-46
2023/04/20 03:34:38;;;;;;;9.17;7.03;;;2.50;1.00;;;;;;5056364;28;20413;-43
2023/04/20 03:37:04;;;;;;;12.93;8.30;;;2.40;1.00;;;;;;5056234;28;20398;-44
2023/04/20 03:39:30;;;;;;;9.50;7.57;;;2.40;1.00;;;;;;5056197;28;20213;-44
2023/04/20 03:41:56;;;;;;;9.63;8.63;;;2.40;1.00;;;;;;5053537;28;20547;-44
2023/04/20 03:44:21;;;;;;;8.33;7.47;;;2.40;1.00;;;;;;5052261;28;20257;-44
2023/04/20 03:46:47;;;;;;;8.37;7.50;;;2.30;14.00;;;;;;5052770;28;20511;-45
2023/04/20 03:49:13;;;;;;;7.93;7.13;;;2.30;1.00;;;;;;5055973;28;20712;-47
2023/04/20 03:51:38;;;;;;;8.30;7.20;;;2.30;58.10;;;;;;5054351;28;20209;-43
2023/04/20 03:54:05;;;;;;;8.13;7.10;;;2.30;91.70;;;;;;5057030;28;20166;-43
2023/04/20 03:56:30;;;;;;;9.33;7.00;;;2.20;99.90;;;;;;5058160;28;20473;-44
2023/04/20 03:58:56;;;;;;;8.20;7.00;;;2.20;99.90;;;;;;5059213;28;20446;-43
2023/04/20 04:01:22;;;;;;;7.20;6.50;;;2.20;99.90;;;;;;5059436;28;20186;-44
2023/04/20 04:03:47;;;;;;;8.57;7.47;;;2.20;99.90;;;;;;5059100;28;20173;-44
2023/04/20 04:06:13;;;;;;;8.77;7.87;;;2.20;99.90;;;;;;5058932;28;20186;-44
2023/04/20 04:08:38;;;;;;;8.10;6.90;;;2.10;99.90;;;;;;5058460;28;20174;-43
2023/04/20 04:11:04;;;;;;;7.60;6.90;;;2.20;99.90;;;;;;5056764;28;20209;-43
2023/04/20 04:13:31;;;;;;;10.40;9.30;;;2.10;97.70;;;;;;5058748;28;20166;-45
2023/04/20 04:15:56;;;;;;;8.73;7.93;;;2.10;99.90;;;;;;5058153;28;20460;-48
2023/04/20 04:18:22;;;;;;;8.37;7.63;;;2.00;99.90;;;;;;5059203;28;20509;-44
2023/04/20 04:20:47;;;;;;;8.57;7.77;;;2.00;99.90;;;;;;5058174;28;20193;-45
2023/04/20 04:23:13;;;;;;;9.40;7.83;;;1.90;99.90;;;;;;5056740;28;20177;-44
2023/04/20 04:25:39;;;;;;;8.87;7.13;;;1.90;99.90;;;;;;5056322;28;20189;-43
2023/04/20 04:28:06;;;;;;;8.63;7.83;;;1.90;99.90;;;;;;5056242;28;20480;-44
2023/04/20 04:30:31;;;;;;;8.97;7.60;;;1.90;99.90;;;;;;5057729;28;20567;-48
2023/04/20 04:32:58;;;;;;;9.67;8.33;;;2.00;99.90;;;;;;5054833;28;20444;-45
2023/04/20 04:35:24;;;;;;;8.53;7.73;;;2.00;99.90;;;;;;5054638;28;20515;-45
2023/04/20 04:37:51;;;;;;;9.50;8.50;;;2.00;99.90;;;;;;5054951;28;21064;-45
2023/04/20 04:40:17;;;;;;;10.87;8.50;;;2.00;99.90;;;;;;5055387;28;20802;-45
2023/04/20 04:42:44;;;;;;;12.53;8.00;;;2.10;99.90;;;;;;5054368;28;20571;-45
2023/04/20 04:45:10;;;;;;;13.73;8.73;;;2.10;99.90;;;;;;5055870;28;20270;-43
2023/04/20 04:47:36;;;;;;;9.20;7.73;;;2.10;99.90;;;;;;5055321;28;20495;-44
2023/04/20 04:50:03;;;;;;;8.57;7.70;;;2.10;99.90;;;;;;5056868;28;20443;-44
2023/04/20 04:52:28;;;;;;;9.03;7.63;;;2.10;99.90;;;;;;5042113;28;20566;-43
2023/04/20 04:54:54;;;;;;;9.60;8.70;;;2.10;99.90;;;;;;5035729;28;20461;-44
2023/04/20 04:57:20;;;;;;;9.10;8.20;;;2.10;99.90;;;;;;5036768;28;20162;-46
2023/04/20 04:59:45;;;;;;;9.43;8.53;;;2.10;99.90;;;;;;5035025;28;20256;-45
2023/04/20 05:02:11;;;;;;;9.80;8.20;;;2.10;99.90;;;;;;5035389;28;20201;-43
2023/04/20 05:04:36;;;;;;;9.00;8.03;;;2.10;99.90;;;;;;5035593;28;20174;-43
2023/04/20 05:07:02;;;;;;;9.17;8.07;;;2.10;99.90;;;;;;5034545;28;20277;-44
2023/04/20 05:09:32;;;;;;;11.13;8.10;;;2.20;99.90;;;;;;5033023;28;20178;-42
2023/04/20 05:12:02;;;;;;;9.03;8.13;;;2.20;99.90;;;;;;5032119;28;20220;-42
2023/04/20 05:14:31;;;;;;;9.10;8.20;;;2.30;99.90;;;;;;5032711;28;20405;-44
2023/04/20 05:16:58;;;;;;;8.80;8.00;;;2.40;99.90;;;;;;5031035;28;20714;-42
2023/04/20 05:19:23;;;;;;;9.13;8.20;;;2.50;42.70;;;;;;5033407;28;20460;-43
2023/04/20 05:21:50;;;;;;;9.97;8.93;;;2.50;23.50;;;;;;5045218;28;20449;-43
2023/04/20 05:24:18;;;;;;;10.37;8.83;;;2.60;23.40;;;;;;5030633;28;20206;-45
2023/04/20 05:26:45;;;;;;;9.50;8.07;;;2.60;34.00;;;;;;5031575;28;20492;-43
2023/04/20 05:29:12;;;;;;;13.07;9.77;;;2.70;29.50;;;;;;5033662;28;20440;-43
2023/04/20 05:31:38;;;;;;;9.60;8.37;;;2.70;1.00;;;;;;5049455;28;20472;-42
2023/04/20 05:34:03;;;;;;;10.17;9.00;;;2.80;1.00;;;;;;5034952;28;20427;-43
2023/04/20 05:36:29;;;;;;;14.27;9.60;;;2.90;1.00;;;;;;5052382;28;20196;-45
2023/04/20 05:38:55;;;;;;;10.07;8.97;;;3.00;1.00;;;;;;5050262;28;20165;-43
2023/04/20 05:41:25;;;;;;;9.47;8.57;;;3.00;1.00;;;;;;5048135;28;20800;-43
2023/04/20 05:43:52;;;;;;;10.83;9.67;;;3.10;1.00;;;;;;5051578;28;20205;-43
2023/04/20 05:46:17;;;;;;;11.10;9.83;;;3.20;1.00;;;;;;5050368;28;20529;-45
2023/04/20 05:48:43;;;;;;;9.13;8.23;;;3.30;1.00;;;;;;5049155;28;20462;-42
2023/04/20 05:51:08;;;;;;;10.40;9.30;;;3.50;99.90;;;;;;5050175;28;20214;-46
2023/04/20 05:53:34;;;;;;;10.83;8.97;;;3.60;99.90;;;;;;5052265;28;20349;-43
2023/04/20 05:56:00;;;;;;;10.77;9.67;;;3.80;99.90;;;;;;5051614;28;20361;-44
2023/04/20 05:58:26;;;;;;;11.13;10.03;;;3.90;91.90;;;;;;5050117;28;20174;-43
2023/04/20 06:00:51;;;;;;;10.77;9.77;;;4.10;29.90;;;;;;5051033;28;20195;-46
2023/04/20 06:03:17;;;;;;;15.40;8.93;;;4.30;1.00;;;;;;5050369;28;20627;-44
2023/04/20 06:05:43;;;;;;;8.73;7.93;;;4.50;1.00;;;;;;5051577;28;20276;-45
2023/04/20 06:08:09;;;;;;;9.43;8.50;;;4.70;99.90;;;;;;5044189;28;20183;-44
2023/04/20 06:10:34;;;;;;;14.13;10.10;;;4.80;99.90;;;;;;5032523;28;20495;-43
2023/04/20 06:13:00;;;;;;;9.47;8.47;;;5.00;1.00;;;;;;5034731;28;20269;-43
2023/04/20 06:15:26;;;;;;;8.87;8.07;;;5.30;18.40;;;;;;5031978;28;20633;-43
2023/04/20 06:17:51;;;;;;;9.30;8.40;;;5.80;1.00;;;;;;5032162;28;20181;-43
2023/04/20 06:20:18;;;;;;;9.03;8.13;;;6.60;99.90;;;;;;5033030;28;20186;-42
2023/04/20 06:22:44;;;;;;;10.13;8.80;;;7.30;99.90;;;;;;5032592;28;20240;-45
2023/04/20 06:25:10;;;;;;;8.50;7.43;;;7.90;1.00;;;;;;5033302;28;20433;-45
2023/04/20 06:27:36;;;;;;;9.40;8.43;;;8.40;1.00;;;;;;5033326;28;20519;-44
2023/04/20 06:30:02;;;;;;;8.60;7.60;;;8.80;1.00;;;;;;5033255;28;20436;-45
2023/04/20 06:32:28;;;;;;;7.67;6.97;;;9.20;1.00;;;;;;5031932;28;20232;-43
2023/04/20 06:34:54;;;;;;;8.53;7.73;;;9.50;28.00;;;;;;5030952;28;20413;-45
2023/04/20 06:37:19;;;;;;;9.03;7.90;;;9.50;99.90;;;;;;5032341;28;20184;-45
2023/04/20 06:39:45;;;;;;;10.67;8.53;;;9.10;99.90;;;;;;5033274;28;20279;-44
2023/04/20 06:42:11;;;;;;;11.50;8.80;;;8.70;99.90;;;;;;5032724;28;20181;-49
2023/04/20 06:44:36;;;;;;;13.63;8.37;;;8.30;99.90;;;;;;5031577;28;20343;-47
2023/04/20 06:47:02;;;;;;;9.80;8.80;;;7.90;99.90;;;;;;5032845;28;20194;-46
2023/04/20 06:49:27;;;;;;;11.40;8.87;;;7.70;1.00;;;;;;5033827;28;20197;-47
2023/04/20 06:51:53;;;;;;;9.20;8.30;;;7.50;1.00;;;;;;5033799;28;20275;-43
2023/04/20 06:54:19;;;;;;;11.23;10.13;;;7.40;1.00;;;;;;5031905;28;20252;-49
2023/04/20 06:56:44;;;;;;;9.97;9.03;;;7.40;9.90;;;;;;5033513;28;20182;-44
2023/04/20 06:59:10;;;;;;;10.00;9.00;;;7.50;99.90;;;;;;5030247;28;20194;-43
2023/04/20 07:01:35;;;;;;;12.83;9.13;;;7.70;99.90;;;;;;5032329;28;20406;-49
2023/04/20 07:04:02;;;;;;;10.60;9.60;;;8.10;99.90;;;;;;5032208;28;20622;-45
2023/04/20 07:06:28;;;;;;;9.10;8.20;;;8.40;99.90;;;;;;5031525;28;20198;-46
2023/04/20 07:08:53;;;;;;;13.00;9.07;;;8.70;1.00;;;;;;5033262;28;20448;-46
2023/04/20 07:11:19;;;;;;;9.33;8.43;;;9.00;1.00;;;;;;5033084;28;20592;-47
2023/04/20 07:13:44;;;;;;;10.30;9.30;;;9.10;99.90;;;;;;5034189;28;20185;-47
2023/04/20 07:16:10;;;;;;;9.83;8.83;;;9.10;99.90;;;;;;5035086;28;20186;-44
2023/04/20 07:18:36;;;;;;;14.43;9.07;;;9.10;99.90;;;;;;5033071;28;20383;-44
2023/04/20 07:21:01;;;;;;;9.67;8.60;;;9.10;99.90;;;;;;5032854;28;20328;-44
2023/04/20 07:23:28;;;;;;;10.60;8.27;;;9.10;99.90;;;;;;5037504;28;20536;-46
2023/04/20 07:25:54;;;;;;;9.73;8.73;;;9.20;99.90;;;;;;5021575;28;20193;-43
2023/04/20 07:28:20;;;;;;;12.50;9.10;;;9.10;99.90;;;;;;5036281;28;20481;-44
2023/04/20 07:30:45;;;;;;;41.07;9.40;;;9.10;1.00;;;;;;5036906;28;20210;-45
2023/04/20 07:33:11;;;;;;;11.20;8.70;;;9.40;99.90;;;;;;5021499;28;20634;-47
2023/04/20 07:35:37;;;;;;;6.27;5.67;;;9.80;1.00;;;;;;5037662;28;20182;-48
2023/04/20 07:38:02;;;;;;;8.70;7.67;;;10.50;99.90;;;;;;5035474;28;20576;-43
2023/04/20 07:40:28;;;;;;;10.20;9.23;;;11.50;69.60;;;;;;5036231;28;20267;-43
2023/04/20 07:42:53;;;;;;;10.23;8.53;;;11.70;99.90;;;;;;5038761;28;20171;-44
2023/04/20 07:45:20;;;;;;;10.40;9.40;;;11.50;2.00;;;;;;5039141;28;20221;-44
2023/04/20 07:47:50;;;;;;;10.00;9.00;;;11.20;1.00;;;;;;5038301;28;20284;-44
2023/04/20 07:50:15;;;;;;;10.30;9.30;;;10.60;1.00;;;;;;5039720;28;20436;-46
2023/04/20 07:52:43;;;;;;;10.33;9.33;;;10.00;6.50;;;;;;5039101;28;20468;-45
2023/04/20 07:55:13;;;;;;;10.40;9.30;;;9.80;35.60;;;;;;5036681;28;20185;-43
2023/04/20 07:57:39;;;;;;;11.00;10.00;;;9.50;61.30;;;;;;5037514;28;20413;-43
2023/04/20 08:00:06;;;;;;;11.83;10.37;;;9.30;99.90;;;;;;5035525;28;20444;-44
2023/04/20 08:02:32;;;;;;;10.17;9.27;;;9.20;99.90;;;;;;5017316;28;20440;-43
2023/04/20 08:04:57;;;;;;;10.27;9.40;;;9.10;99.90;;;;;;5036885;28;20421;-44
2023/04/20 08:07:23;;;;;;;11.83;10.73;;;9.20;99.90;;;;;;5037365;28;20429;-44
2023/04/20 08:09:49;;;;;;;12.07;10.67;;;9.20;99.90;;;;;;5036623;28;20189;-45
2023/04/20 08:12:15;;;;;;;12.30;11.10;;;9.00;99.90;;;;;;5036141;28;20213;-46
2023/04/20 08:14:40;;;;;;;11.77;10.57;;;8.80;99.90;;;;;;5037051;28;20512;-43
2023/04/20 08:17:07;;;;;;;11.57;10.40;;;8.60;99.90;;;;;;5037905;28;20229;-43
2023/04/20 08:19:32;;;;;;;10.73;9.73;;;8.50;99.90;;;;;;5036233;28;20250;-44
2023/04/20 08:21:58;;;;;;;12.03;10.83;;;8.50;1.00;;;;;;5036457;28;20441;-45
2023/04/20 08:24:24;;;;;;;11.77;10.57;;;8.40;1.00;;;;;;5036571;28;20311;-49
2023/04/20 08:26:50;;;;;;;10.83;9.73;;;8.40;1.00;;;;;;5038424;28;20245;-46
2023/04/20 08:29:16;;;;;;;12.40;10.80;;;8.30;24.90;;;;;;5035533;28;20190;-44
2023/04/20 08:31:41;;;;;;;13.43;12.03;;;8.20;1.00;;;;;;5034926;28;20491;-44
2023/04/20 08:34:07;;;;;;;15.03;11.47;;;7.80;1.00;;;;;;5034951;28;20417;-45
2023/04/20 08:36:33;;;;;;;11.53;10.43;;;7.50;99.90;;;;;;5034200;28;20253;-44
2023/04/20 08:39:10;;;;;;;13.63;11.83;;;7.20;99.90;;;;;;5036683;28;20173;-43
2023/04/20 08:41:35;;;;;;;14.13;12.23;;;6.90;19.50;;;;;;5037912;28;20186;-43
2023/04/20 08:44:01;;;;;;;13.33;11.93;;;6.70;99.90;;;;;;5049839;28;20443;-44
2023/04/20 08:46:27;;;;;;;12.57;11.27;;;6.60;99.90;;;;;;5038569;28;20290;-43
2023/04/20 08:48:56;;;;;;;13.47;12.07;;;6.60;99.90;;;;;;5047068;28;20413;-44
2023/04/20 08:51:23;;;;;;;12.50;11.20;;;6.40;99.90;;;;;;5040296;28;20567;-45
2023/04/20 08:53:49;;;;;;;13.77;12.20;;;6.40;99.90;;;;;;5056220;28;20405;-44
2023/04/20 08:56:14;;;;;;;13.43;11.07;;;6.40;1.00;;;;;;5054409;28;20486;-44
2023/04/20 08:58:41;;;;;;;13.73;12.33;;;6.50;1.00;;;;;;5044516;28;20520;-43
2023/04/20 09:01:10;;;;;;;14.17;12.67;;;6.60;99.90;;;;;;5038831;28;20197;-45
2023/04/20 09:03:40;;;;;;;13.70;11.97;;;6.70;1.00;;;;;;5035812;28;20420;-45
2023/04/20 09:06:14;;;;;;;13.83;12.40;;;6.80;1.00;;;;;;5034238;28;20452;-45
2023/04/20 09:08:40;;;;;;;12.23;10.93;;;6.80;99.90;;;;;;5036646;28;20414;-43
2023/04/20 09:11:06;;;;;;;14.30;12.97;;;6.80;1.00;;;;;;5035164;28;20813;-44
2023/04/20 09:13:32;;;;;;;13.63;12.40;;;6.80;99.90;;;;;;5038619;28;20428;-44
2023/04/20 09:16:09;;;;;;;12.97;11.77;;;6.80;1.00;;;;;;5046128;28;20702;-44
2023/04/20 09:18:36;;;;;;;12.97;11.77;;;6.80;1.00;;;;;;5034490;28;20246;-45
2023/04/20 09:21:09;;;;;;;13.10;11.80;;;6.80;14.10;;;;;;5035039;28;20727;-46
2023/04/20 09:23:35;;;;;;;12.40;11.20;;;6.80;99.90;;;;;;5035989;28;20413;-44
2023/04/20 09:26:01;;;;;;;13.40;10.27;;;6.90;83.40;;;;;;5050657;28;20452;-44
2023/04/20 09:28:40;;;;;;;12.83;11.60;;;7.00;99.90;;;;;;5035614;28;20167;-45
2023/04/20 09:31:20;;;;;;;12.40;11.10;;;7.10;99.90;;;;;;5033886;28;20229;-46
2023/04/20 09:33:58;;;;;;;12.10;10.43;;;7.20;99.90;;;;;;5035828;28;20807;-45
2023/04/20 09:36:33;;;;;;;11.87;10.67;;;7.40;99.90;;;;;;5034582;28;20440;-45
2023/04/20 09:39:12;;;;;;;11.87;10.50;;;7.40;1.00;;;;;;5034787;28;20421;-45
2023/04/20 09:41:38;;;;;;;10.80;9.77;;;7.50;1.00;;;;;;5033604;28;20436;-47
2023/04/20 09:44:05;;;;;;;12.40;10.50;;;7.50;1.00;;;;;;5043154;28;20846;-45
2023/04/20 09:46:32;;;;;;;10.90;9.90;;;7.50;1.00;;;;;;5036506;28;20514;-46
2023/04/20 09:49:00;;;;;;;14.53;10.17;;;7.50;99.90;;;;;;5041800;28;20421;-44
2023/04/20 09:51:27;;;;;;;10.53;9.40;;;7.60;1.00;;;;;;5034087;28;20574;-45
2023/04/20 09:53:57;;;;;;;10.60;9.47;;;7.70;99.90;;;;;;5039805;28;20421;-44
2023/04/20 09:56:23;;;;;;;11.80;10.63;;;7.70;99.90;;;;;;5052249;28;20612;-44
2023/04/20 09:58:50;;;;;;;10.77;9.67;;;7.80;1.00;;;;;;5050844;28;20516;-47
2023/04/20 10:01:16;;;;;;;10.57;9.57;;;7.80;1.00;;;;;;5055802;28;20436;-44
2023/04/20 10:03:42;;;;;;;11.37;10.20;;;7.90;99.90;;;;;;5054939;28;20473;-44
2023/04/20 10:06:20;;;;;;;10.60;9.57;;;7.90;99.90;;;;;;5052698;28;20192;-46
2023/04/20 10:08:47;;;;;;;11.50;10.43;;;7.90;1.00;;;;;;5055191;28;20689;-45
2023/04/20 10:11:24;;;;;;;11.57;10.47;;;7.90;99.90;;;;;;5054683;28;20468;-44
2023/04/20 10:13:50;;;;;;;11.43;10.30;;;7.80;1.00;;;;;;5052964;28;20408;-44
2023/04/20 10:16:18;;;;;;;11.27;10.27;;;7.90;1.00;;;;;;5052448;28;20424;-45
2023/04/20 10:18:59;;;;;;;11.93;10.73;;;8.00;1.00;;;;;;5053855;28;20336;-44
2023/04/20 10:21:26;;;;;;;11.73;10.60;;;7.90;99.90;;;;;;5054584;28;20433;-46
2023/04/20 10:23:52;;;;;;;11.90;10.70;;;7.90;99.90;;;;;;5053922;28;20420;-44
2023/04/20 10:26:19;;;;;;;12.40;10.97;;;7.80;1.00;;;;;;5053229;28;20495;-44
2023/04/20 10:28:45;;;;;;;12.90;11.70;;;7.80;1.00;;;;;;5051452;28;20412;-45
2023/04/20 10:31:12;;;;;;;10.93;9.93;;;7.80;37.20;;;;;;5051647;28;20475;-44
2023/04/20 10:33:55;;;;;;;12.37;11.00;;;7.80;1.00;;;;;;5051582;28;20444;-43
2023/04/20 10:36:35;;;;;;;14.10;11.67;;;7.80;99.90;;;;;;5052975;28;20748;-44
2023/04/20 10:39:15;;;;;;;11.77;10.60;;;7.80;99.90;;;;;;5054021;28;20491;-44
2023/04/20 10:42:10;;;;;;;10.73;9.63;;;8.00;91.80;;;;;;5052600;28;20432;-43
2023/04/20 10:44:50;;;;;;;12.93;10.70;;;8.30;99.90;;;;;;5033325;28;20688;-44
2023/04/20 10:47:17;;;;;;;11.10;10.10;;;8.50;99.90;;;;;;5054331;28;20411;-47
2023/04/20 10:49:43;;;;;;;11.27;10.17;;;8.70;99.90;;;;;;5054229;28;20427;-45
2023/04/20 10:52:09;;;;;;;12.50;10.50;;;8.90;1.00;;;;;;5054471;28;20463;-44
2023/04/20 10:54:38;;;;;;;12.10;11.00;;;9.00;99.90;;;;;;5055246;28;20435;-45
2023/04/20 10:57:05;;;;;;;12.07;10.70;;;9.00;99.90;;;;;;5054386;28;20552;-47
2023/04/20 10:59:31;;;;;;;10.63;9.60;;;9.00;99.90;;;;;;5053634;28;20462;-44
2023/04/20 11:02:00;;;;;;;10.70;9.60;;;8.90;99.90;;;;;;5052545;28;20525;-45
2023/04/20 11:04:31;;;;;;;9.87;8.80;;;8.90;99.90;;;;;;5052465;28;20182;-45
2023/04/20 11:07:06;;;;;;;9.07;8.27;;;8.80;99.90;;;;;;5053964;28;20424;-44
2023/04/20 11:09:33;;;;;;;9.07;8.17;;;8.70;99.90;;;;;;5052990;28;20416;-45
2023/04/20 11:12:10;;;;;;;9.00;8.10;;;8.60;99.90;;;;;;5051783;28;20483;-44
2023/04/20 11:14:38;;;;;;;9.63;8.63;;;8.50;99.90;;;;;;5051180;28;20845;-43
2023/04/20 11:17:05;;;;;;;9.33;8.37;;;8.60;99.90;;;;;;5051877;28;20428;-46
2023/04/20 11:19:33;;;;;;;9.60;8.70;;;8.70;1.00;;;;;;5054192;28;20420;-44
2023/04/20 11:22:01;;;;;;;10.30;9.33;;;8.90;99.90;;;;;;5052452;28;20510;-44
2023/04/20 11:24:28;;;;;;;9.30;8.50;;;9.00;99.90;;;;;;5051779;28;20569;-43
2023/04/20 11:26:54;;;;;;;9.47;8.50;;;9.10;1.00;;;;;;5050681;28;20574;-43
2023/04/20 11:29:33;;;;;;;8.43;7.70;;;9.10;1.00;;;;;;5051287;28;20424;-44
2023/04/20 11:32:02;;;;;;;9.50;8.10;;;9.00;1.00;;;;;;5053642;28;20471;-47
2023/04/20 11:34:28;;;;;;;7.33;6.63;;;9.10;1.00;;;;;;5052684;28;20420;-47
2023/04/20 11:36:58;;;;;;;7.90;7.10;;;8.90;99.90;;;;;;5052454;28;20485;-47
2023/04/20 11:39:25;;;;;;;7.90;7.20;;;8.70;1.00;;;;;;5045144;28;20194;-45
2023/04/20 11:41:51;;;;;;;9.40;8.60;;;8.70;1.00;;;;;;5049149;28;20462;-46
2023/04/20 11:44:19;;;;;;;8.93;8.13;;;8.60;1.00;;;;;;5051443;28;20424;-46
2023/04/20 11:46:47;;;;;;;8.97;8.17;;;8.50;99.90;;;;;;5051858;28;20439;-45
2023/04/20 11:49:14;;;;;;;8.20;7.40;;;8.40;99.90;;;;;;5049344;28;20420;-44
2023/04/20 11:51:42;;;;;;;7.80;7.17;;;8.30;1.00;;;;;;5046079;28;20822;-43
2023/04/20 11:54:08;;;;;;;9.40;8.50;;;8.30;45.50;;;;;;5051449;28;20513;-43
2023/04/20 11:56:33;;;;;;;8.97;8.07;;;8.20;99.90;;;;;;5049987;28;20424;-43
2023/04/20 11:58:59;;;;;;;9.20;8.40;;;8.20;1.00;;;;;;5051484;28;20185;-44
2023/04/20 12:01:25;;;;;;;8.30;7.60;;;8.20;1.00;;;;;;5050160;28;20185;-45
2023/04/20 12:03:50;;;;;;;8.07;7.33;;;8.20;1.00;;;;;;5049196;28;20205;-44
2023/04/20 12:06:16;;;;;;;7.77;7.07;;;8.10;1.00;;;;;;5053071;28;20174;-44
2023/04/20 12:08:42;;;;;;;8.30;7.60;;;8.00;1.00;;;;;;5053529;28;20192;-44
2023/04/20 12:11:08;;;;;;;7.97;7.20;;;8.00;1.00;;;;;;5053610;28;20209;-43
2023/04/20 12:13:33;;;;;;;8.97;8.07;;;7.90;99.90;;;;;;5054961;28;20412;-44
2023/04/20 12:15:59;;;;;;;9.53;8.63;;;7.90;99.90;;;;;;5053516;28;20170;-43
2023/04/20 12:18:25;;;;;;;13.03;10.80;;;8.00;1.00;;;;;;5051188;28;20188;-45
2023/04/20 12:20:50;;;;;;;10.80;9.70;;;8.10;1.00;;;;;;5052538;28;20509;-46
2023/04/20 12:23:16;;;;;;;13.70;11.30;;;8.10;1.00;;;;;;5054391;28;20181;-45
2023/04/20 12:25:42;;;;;;;15.77;12.20;;;8.20;1.00;;;;;;5054706;28;20174;-45
2023/04/20 12:28:07;;;;;;;15.27;11.40;;;8.30;1.00;;;;;;5054484;28;20680;-44
2023/04/20 12:30:34;;;;;;;11.83;10.30;;;8.40;99.90;;;;;;5056439;28;20825;-43
2023/04/20 12:33:02;;;;;;;13.23;11.90;;;8.50;99.90;;;;;;5055921;28;20225;-43
2023/04/20 12:35:28;;;;;;;11.37;10.27;;;8.40;99.90;;;;;;5057516;28;20432;-44
2023/04/20 12:37:53;;;;;;;12.20;11.00;;;8.40;1.00;;;;;;5057291;28;20427;-43
2023/04/20 12:40:19;;;;;;;12.40;11.20;;;8.40;1.00;;;;;;5058547;28;20185;-44
2023/04/20 12:42:44;;;;;;;16.40;14.57;;;8.40;1.00;;;;;;5056637;28;20208;-44
2023/04/20 12:45:10;;;;;;;21.03;15.50;;;8.30;1.00;;;;;;5056888;28;20185;-45
2023/04/20 12:47:36;;;;;;;14.57;12.10;;;8.20;1.00;;;;;;5054558;28;20185;-43
2023/04/20 12:50:02;;;;;;;12.97;11.67;;;8.20;1.00;;;;;;5056205;28;20200;-45
2023/04/20 12:52:28;;;;;;;15.30;13.80;;;8.20;14.20;;;;;;5055653;28;20605;-43